Scottsdale, Arizona
Current Conditions -  °F | °C
As of 2:51 AM on Tuesday 21 Oct 2014 (Local Time) from KPHX Reporting Station
Clear Clear  
Wind Chill: 72°   Ceiling: Unl
Heat Index: 72°   Visibility: 10mi
Dew Point: 52°   Wind: 7mph
Humidity: 49%   Direction: 100°E
Pressure: 29.84"   Gusts: NA
Location:  33.49°N, 111.92°W
Report Text: KPHX 210951Z 10006KT 10SM CLR 22/11 A2984 RMK AO2 SLP088 T02220111
Loading
Personal Weather Stations






























Interactive Weather Map
Tropical Storm Tracking
New forecast layout! Learn more

10-Day Weather Forecast

Advertisements
Track Severe Weather on mobile